createdAt,value
2019-04-01T00:01:57.708Z,10.50
2019-04-01T00:04:34.041Z,10.30
2019-04-01T00:07:10.320Z,10.40
2019-04-01T00:09:47.588Z,10.30
2019-04-01T00:12:23.438Z,10.30
2019-04-01T00:18:40.475Z,10.10
2019-04-01T00:25:00.378Z,9.90
2019-04-01T00:27:37.464Z,9.90
2019-04-01T00:30:13.531Z,9.90
2019-04-01T00:36:31.577Z,9.90
2019-04-01T00:39:09.112Z,9.90
2019-04-01T00:42:10.518Z,9.80
2019-04-01T00:44:55.103Z,9.90
2019-04-01T00:47:32.469Z,9.90
2019-04-01T00:56:31.506Z,9.80
2019-04-01T00:59:09.618Z,9.80
2019-04-01T01:05:30.737Z,9.70
2019-04-01T01:11:51.682Z,9.70
2019-04-01T01:17:57.652Z,9.50
2019-04-01T01:20:34.150Z,9.50
2019-04-01T01:23:12.129Z,9.60
2019-04-01T01:29:18.818Z,9.50
2019-04-01T01:31:55.699Z,9.40
2019-04-01T01:34:34.609Z,9.40
2019-04-01T01:40:41.643Z,9.50
2019-04-01T01:43:18.492Z,9.50
2019-04-01T01:45:57.411Z,9.50
2019-04-01T01:48:36.553Z,9.50
2019-04-01T01:51:15.674Z,9.60
2019-04-01T01:53:52.765Z,9.70
2019-04-01T01:56:34.352Z,9.60
2019-04-01T02:02:52.603Z,9.40
2019-04-01T02:05:29.708Z,9.40
2019-04-01T02:08:09.432Z,9.40
2019-04-01T02:10:46.135Z,9.30
2019-04-01T02:13:24.127Z,9.30
2019-04-01T02:16:00.881Z,9.30
2019-04-01T02:18:39.126Z,9.00
2019-04-01T02:27:34.358Z,8.90
2019-04-01T02:30:10.596Z,9.00
2019-04-01T02:32:47.674Z,8.90
2019-04-01T02:35:24.357Z,8.80
2019-04-01T02:41:45.689Z,8.80
2019-04-01T02:44:23.595Z,8.70
2019-04-01T02:47:02.513Z,8.70
2019-04-01T02:53:07.467Z,8.70
2019-04-01T02:55:44.342Z,8.80
2019-04-01T02:58:21.445Z,8.70
2019-04-01T03:00:59.532Z,8.70
2019-04-01T03:03:38.468Z,8.50
2019-04-01T03:09:46.490Z,8.60
2019-04-01T03:12:23.561Z,8.50
2019-04-01T03:14:59.414Z,8.50
2019-04-01T03:17:38.760Z,8.50
2019-04-01T03:20:17.686Z,8.50
2019-04-01T03:26:22.626Z,8.50
2019-04-01T03:28:59.704Z,8.40
2019-04-01T03:31:37.818Z,8.40
2019-04-01T03:34:15.714Z,8.40
2019-04-01T03:36:56.485Z,8.40
2019-04-01T03:39:44.637Z,8.60
2019-04-01T03:42:20.482Z,8.60
2019-04-01T03:45:00.629Z,8.60
2019-04-01T03:47:37.730Z,8.60
2019-04-01T03:53:41.635Z,8.50
2019-04-01T03:59:47.833Z,8.70
2019-04-01T04:02:23.606Z,8.70
2019-04-01T04:05:00.618Z,8.60
2019-04-01T04:07:36.408Z,8.60
2019-04-01T04:10:13.697Z,8.70
2019-04-01T04:12:52.160Z,8.70
2019-04-01T04:15:30.150Z,8.70
2019-04-01T04:21:47.974Z,8.60
2019-04-01T04:28:06.633Z,8.40
2019-04-01T04:34:26.745Z,8.50
2019-04-01T04:37:12.634Z,8.40
2019-04-01T04:39:57.906Z,8.50
2019-04-01T04:48:40.782Z,8.40
2019-04-01T04:51:18.665Z,8.30
2019-04-01T04:57:24.838Z,8.30
2019-04-01T05:00:01.926Z,8.20
2019-04-01T05:02:39.619Z,8.20
2019-04-01T05:05:17.534Z,8.20
2019-04-01T05:07:58.712Z,8.20
2019-04-01T05:10:43.783Z,8.10
2019-04-01T05:13:23.717Z,8.10
2019-04-01T05:19:37.020Z,8.10
2019-04-01T05:22:13.737Z,8.10
2019-04-01T05:28:24.844Z,8.00
2019-04-01T05:34:52.732Z,8.10
2019-04-01T05:41:08.740Z,8.10
2019-04-01T05:47:17.997Z,8.20
2019-04-01T05:53:23.560Z,8.30
2019-04-01T05:56:05.569Z,8.30
2019-04-01T05:58:43.669Z,8.40
2019-04-01T06:01:22.166Z,8.50
2019-04-01T06:04:00.900Z,8.50
2019-04-01T06:10:14.464Z,8.60
2019-04-01T06:12:52.763Z,8.70
2019-04-01T06:15:30.677Z,8.80
2019-04-01T06:18:07.754Z,8.80
2019-04-01T06:20:42.780Z,8.90
2019-04-01T06:23:21.531Z,9.00
2019-04-01T06:26:02.086Z,9.10
2019-04-01T06:28:37.174Z,9.10
2019-04-01T06:31:11.746Z,9.10
2019-04-01T06:33:50.645Z,9.10
2019-04-01T06:36:26.714Z,9.20
2019-04-01T06:39:10.421Z,9.10
2019-04-01T06:41:48.037Z,9.20
2019-04-01T06:44:24.362Z,9.20
2019-04-01T06:50:13.093Z,9.20
2019-04-01T06:52:48.921Z,9.30
2019-04-01T06:58:42.821Z,9.40
2019-04-01T07:01:17.237Z,9.50
2019-04-01T07:03:53.910Z,9.40
2019-04-01T07:10:11.771Z,9.40
2019-04-01T07:16:27.997Z,9.60
2019-04-01T07:22:50.964Z,9.70
2019-04-01T07:25:28.865Z,9.80
2019-04-01T07:28:07.791Z,9.80
2019-04-01T07:30:43.633Z,9.90
2019-04-01T07:33:30.269Z,10.00
2019-04-01T07:39:33.862Z,10.00
2019-04-01T07:42:11.767Z,10.10
2019-04-01T07:44:51.923Z,10.10
2019-04-01T07:47:35.755Z,10.10
2019-04-01T07:50:21.411Z,10.20
2019-04-01T07:52:57.093Z,10.20
2019-04-01T07:55:38.388Z,10.30
2019-04-01T08:04:12.335Z,10.30
2019-04-01T08:12:57.034Z,10.40
2019-04-01T08:19:14.865Z,10.60
2019-04-01T08:21:52.451Z,10.80
2019-04-01T08:24:28.005Z,10.90
2019-04-01T08:30:43.220Z,11.10
2019-04-01T08:33:25.769Z,11.20
2019-04-01T08:36:02.131Z,11.20
2019-04-01T08:38:43.261Z,11.20
2019-04-01T08:41:24.265Z,11.10
2019-04-01T08:50:58.077Z,11.00
2019-04-01T08:53:34.357Z,11.10
2019-04-01T08:56:11.250Z,11.20
2019-04-01T08:58:47.886Z,11.40
2019-04-01T09:04:54.883Z,11.40
2019-04-01T09:11:05.165Z,11.70
2019-04-01T09:17:12.753Z,11.70
2019-04-01T09:19:55.208Z,11.80
2019-04-01T09:22:31.040Z,11.80
2019-04-01T09:25:11.198Z,12.00
2019-04-01T09:27:44.660Z,12.00
2019-04-01T09:33:52.617Z,11.90
2019-04-01T09:39:50.674Z,12.10
2019-04-01T09:42:34.776Z,12.30
2019-04-01T09:49:09.103Z,12.40
2019-04-01T09:55:37.187Z,12.50
2019-04-01T10:01:43.996Z,12.60
2019-04-01T10:07:49.673Z,12.50
2019-04-01T10:14:07.406Z,12.70
2019-04-01T10:17:02.308Z,12.90
2019-04-01T10:19:36.934Z,13.10
2019-04-01T10:25:51.500Z,13.20
2019-04-01T10:28:31.945Z,13.20
2019-04-01T10:31:06.727Z,13.20
2019-04-01T10:33:44.393Z,13.20
2019-04-01T10:36:20.245Z,13.10
2019-04-01T10:38:56.100Z,13.10
2019-04-01T10:41:36.256Z,13.30
2019-04-01T10:44:13.337Z,13.40
2019-04-01T10:46:50.030Z,13.40
2019-04-01T10:49:27.807Z,13.50
2019-04-01T10:52:02.748Z,13.50
2019-04-01T10:54:52.116Z,13.40
2019-04-01T10:57:29.237Z,13.40
2019-04-01T11:00:04.737Z,13.60
2019-04-01T11:02:38.812Z,13.80
2019-04-01T11:08:41.979Z,13.80
2019-04-01T11:14:46.501Z,14.10
2019-04-01T11:20:56.529Z,14.40
2019-04-01T11:27:09.759Z,14.50
2019-04-01T11:29:48.237Z,14.60
2019-04-01T11:32:23.775Z,14.60
2019-04-01T11:35:03.450Z,14.50
2019-04-01T11:37:39.307Z,14.70
2019-04-01T11:43:54.747Z,14.80
2019-04-01T11:46:31.589Z,14.80
2019-04-01T11:49:08.793Z,14.80
2019-04-01T11:55:20.348Z,14.70
2019-04-01T11:57:56.739Z,14.60
2019-04-01T12:00:38.397Z,14.60
2019-04-01T12:03:15.294Z,14.70
2019-04-01T12:05:52.197Z,14.70
2019-04-01T12:08:37.633Z,14.90
2019-04-01T12:11:13.277Z,14.90
2019-04-01T12:13:49.948Z,15.00
2019-04-01T12:16:29.751Z,15.00
2019-04-01T12:19:07.183Z,14.90
2019-04-01T12:21:43.750Z,15.00
2019-04-01T12:24:19.750Z,15.00
2019-04-01T12:26:55.356Z,15.10
2019-04-01T12:29:38.994Z,15.20
2019-04-01T12:32:10.563Z,15.20
2019-04-01T12:34:49.758Z,15.20
2019-04-01T12:37:39.891Z,15.20
2019-04-01T12:40:21.756Z,15.30
2019-04-01T12:42:57.310Z,15.30
2019-04-01T12:45:33.382Z,15.40
2019-04-01T12:48:10.234Z,15.40
2019-04-01T12:50:54.317Z,15.40
2019-04-01T12:53:36.279Z,15.50
2019-04-01T12:56:21.144Z,15.70
2019-04-01T12:58:58.640Z,15.70
2019-04-01T13:01:34.381Z,15.60
2019-04-01T13:04:11.364Z,15.70
2019-04-01T13:06:51.947Z,15.70
2019-04-01T13:09:28.756Z,15.80
2019-04-01T13:12:04.754Z,15.80
2019-04-01T13:14:40.764Z,15.90
2019-04-01T13:17:17.387Z,15.90
2019-04-01T13:19:53.247Z,16.00
2019-04-01T13:22:30.734Z,16.10
2019-04-01T13:25:08.422Z,16.10
2019-04-01T13:27:45.302Z,16.10
2019-04-01T13:30:24.082Z,16.10
2019-04-01T13:33:18.868Z,16.10
2019-04-01T13:35:55.395Z,16.10
2019-04-01T13:42:12.448Z,16.20
2019-04-01T13:44:53.194Z,16.10
2019-04-01T13:47:29.246Z,16.20
2019-04-01T13:50:08.383Z,16.20
2019-04-01T13:52:45.256Z,16.20
2019-04-01T13:59:01.280Z,16.30
2019-04-01T14:05:20.354Z,16.40
2019-04-01T14:12:02.172Z,16.50
2019-04-01T14:14:39.505Z,16.60
2019-04-01T14:17:16.333Z,16.70
2019-04-01T14:19:56.493Z,16.60
2019-04-01T14:22:33.160Z,16.60
2019-04-01T14:28:49.994Z,16.80
2019-04-01T14:31:28.300Z,16.90
2019-04-01T14:34:06.265Z,16.90
2019-04-01T14:40:27.344Z,16.80
2019-04-01T14:43:07.285Z,16.80
2019-04-01T14:45:51.329Z,17.00
2019-04-01T14:48:45.211Z,16.90
2019-04-01T14:54:49.783Z,17.00
2019-04-01T15:00:59.000Z,17.10
2019-04-01T15:07:04.364Z,17.20
2019-04-01T15:13:30.765Z,17.30
2019-04-01T15:16:06.057Z,17.30
2019-04-01T15:22:12.245Z,17.40
2019-04-01T15:24:49.119Z,17.50
2019-04-01T15:27:32.745Z,17.60
2019-04-01T15:30:13.955Z,18.00
2019-04-01T15:36:20.794Z,18.90
2019-04-01T15:38:55.806Z,19.10
2019-04-01T15:41:33.271Z,19.30
2019-04-01T15:44:12.420Z,19.40
2019-04-01T15:46:50.895Z,19.20
2019-04-01T15:52:43.829Z,18.80
2019-04-01T15:59:07.377Z,18.50
2019-04-01T16:01:44.235Z,18.00
2019-04-01T16:04:21.520Z,17.70
2019-04-01T16:06:57.373Z,17.60
2019-04-01T16:09:32.847Z,17.40
2019-04-01T16:12:10.323Z,17.30
2019-04-01T16:14:47.417Z,17.20
2019-04-01T16:17:24.688Z,17.10
2019-04-01T16:20:00.323Z,17.10
2019-04-01T16:22:35.840Z,17.00
2019-04-01T16:25:13.495Z,17.00
2019-04-01T16:27:53.511Z,16.90
2019-04-01T16:30:32.363Z,16.80
2019-04-01T16:33:08.415Z,16.70
2019-04-01T16:35:42.874Z,16.70
2019-04-01T16:38:18.054Z,16.60
2019-04-01T16:40:53.841Z,16.60
2019-04-01T16:43:34.263Z,16.70
2019-04-01T16:46:11.357Z,16.60
2019-04-01T16:54:46.855Z,16.40
2019-04-01T16:57:23.844Z,16.40
2019-04-01T17:00:00.177Z,16.40
2019-04-01T17:06:17.412Z,16.30
2019-04-01T17:08:55.107Z,16.20
2019-04-01T17:15:13.849Z,16.00
2019-04-01T17:21:17.844Z,15.80
2019-04-01T17:23:56.159Z,15.70
2019-04-01T17:26:32.490Z,15.60
2019-04-01T17:32:35.406Z,15.50
2019-04-01T17:38:36.467Z,15.30
2019-04-01T17:41:12.321Z,15.20
2019-04-01T17:44:07.413Z,15.10
2019-04-01T17:46:47.371Z,15.20
2019-04-01T17:49:23.232Z,15.00
2019-04-01T17:51:57.875Z,14.90
2019-04-01T17:54:35.342Z,14.80
2019-04-01T18:00:43.165Z,14.60
2019-04-01T18:03:25.961Z,14.50
2019-04-01T18:06:00.852Z,14.40
2019-04-01T18:08:35.212Z,14.40
2019-04-01T18:11:19.281Z,14.30
2019-04-01T18:17:23.188Z,14.20
2019-04-01T18:20:02.868Z,14.10
2019-04-01T18:22:38.788Z,14.00
2019-04-01T18:28:42.962Z,13.90
2019-04-01T18:31:18.568Z,13.90
2019-04-01T18:33:56.782Z,13.80
2019-04-01T18:39:47.946Z,13.80
2019-04-01T18:42:17.029Z,13.70
2019-04-01T18:44:54.194Z,13.70
2019-04-01T18:47:30.404Z,13.60
2019-04-01T18:50:11.728Z,13.60
2019-04-01T18:52:47.791Z,13.50
2019-04-01T18:55:22.612Z,13.50
2019-04-01T18:57:56.630Z,13.40
2019-04-01T19:00:33.401Z,13.50
2019-04-01T19:03:09.623Z,13.40
2019-04-01T19:05:46.977Z,13.30
2019-04-01T19:08:22.917Z,13.30
2019-04-01T19:11:02.745Z,13.20
2019-04-01T19:13:42.217Z,13.20
2019-04-01T19:16:17.848Z,13.20
2019-04-01T19:18:53.890Z,13.20
2019-04-01T19:21:32.002Z,13.20
2019-04-01T19:24:11.445Z,13.20
2019-04-01T19:26:46.978Z,13.10
2019-04-01T19:29:22.017Z,13.10
2019-04-01T19:31:58.890Z,13.00
2019-04-01T19:34:36.150Z,12.90
2019-04-01T19:37:13.420Z,12.90
2019-04-01T19:39:49.741Z,12.80
2019-04-01T19:42:25.415Z,12.70
2019-04-01T19:45:01.025Z,12.70
2019-04-01T19:47:37.907Z,12.60
2019-04-01T19:50:18.065Z,12.40
2019-04-01T19:52:55.400Z,12.40
2019-04-01T19:55:30.999Z,12.50
2019-04-01T19:58:10.728Z,12.50
2019-04-01T20:00:47.433Z,12.40
2019-04-01T20:06:52.973Z,12.40
2019-04-01T20:13:11.865Z,12.20
2019-04-01T20:15:47.930Z,12.10
2019-04-01T20:18:26.457Z,12.10
2019-04-01T20:31:15.647Z,12.00
2019-04-01T20:33:52.432Z,11.90
2019-04-01T20:39:57.071Z,11.90
2019-04-01T20:42:34.153Z,11.90
2019-04-01T20:45:11.060Z,11.90
2019-04-01T20:51:16.002Z,11.90
2019-04-01T20:57:21.914Z,11.60
2019-04-01T21:03:46.609Z,11.70
2019-04-01T21:09:46.485Z,11.60
2019-04-01T21:16:21.959Z,11.50
2019-04-01T21:25:31.198Z,11.50
2019-04-01T21:31:45.912Z,11.50
2019-04-01T21:38:04.632Z,11.40
2019-04-01T21:40:41.591Z,11.40
2019-04-01T21:43:16.928Z,11.30
2019-04-01T21:49:21.061Z,11.30
2019-04-01T21:51:56.091Z,11.30
2019-04-01T21:54:31.127Z,11.20
2019-04-01T22:00:51.440Z,11.10
2019-04-01T22:03:25.585Z,11.10
2019-04-01T22:06:01.095Z,11.00
2019-04-01T22:12:12.681Z,11.10
2019-04-01T22:14:50.097Z,11.00
2019-04-01T22:17:27.995Z,11.00
2019-04-01T22:20:04.054Z,11.00
2019-04-01T22:26:18.681Z,11.00
2019-04-01T22:28:52.684Z,10.90
2019-04-01T22:31:28.289Z,10.90
2019-04-01T22:37:42.695Z,10.80
2019-04-01T22:40:18.120Z,10.80
2019-04-01T22:42:58.875Z,10.80
2019-04-01T22:49:02.688Z,10.60
2019-04-01T22:51:37.273Z,10.60
2019-04-01T22:54:12.053Z,10.60
2019-04-01T23:00:25.808Z,10.50
2019-04-01T23:03:00.234Z,10.50
2019-04-01T23:05:34.689Z,10.40
2019-04-01T23:11:38.990Z,10.40
2019-04-01T23:14:14.689Z,10.40
2019-04-01T23:16:48.689Z,10.40
2019-04-01T23:22:52.171Z,10.40
2019-04-01T23:29:08.179Z,10.30
2019-04-01T23:31:43.694Z,10.30
2019-04-01T23:34:18.691Z,10.30
2019-04-01T23:36:54.905Z,10.30
2019-04-01T23:39:30.363Z,10.20
2019-04-01T23:45:46.578Z,10.20
2019-04-01T23:48:20.711Z,10.00
2019-04-01T23:50:54.712Z,9.90
2019-04-01T23:53:31.238Z,10.10
2019-04-01T23:56:06.303Z,10.00
